METAR Data
IDs: Format: Raw Decoded Include TAF

Data at: 0729 UTC 01 Aug 2021

LRCV 010700Z 18003KT 140V220 CAVOK 29/15 Q1011